Date,TemperatureHighF,TemperatureAvgF,TemperatureLowF,DewpointHighF,DewpointAvgF,DewpointLowF,HumidityHigh,HumidityAvg,HumidityLow,PressureMaxIn,PressureMinIn,WindSpeedMaxMPH,WindSpeedAvgMPH,GustSpeedMaxMPH,PrecipitationSumIn
2012-1-1,34.7,26.0,15.9,17.8,10.4,1.9,79,54,25,30.45,29.99,22,4,22,0.00
2012-1-2,38.2,25.3,15.1,18.9,12.7,4.7,73,60,33,30.40,29.70,20,3,20,0.00
2012-1-3,60.2,48.7,26.6,23.3,19.9,16.0,69,34,19,29.87,29.59,30,7,30,0.00
2012-1-4,63.5,46.6,33.1,28.1,20.4,13.8,58,37,19,29.88,29.62,5,0,5,0.00
2012-1-5,72.1,53.2,33.2,25.7,22.5,19.4,65,34,14,29.61,29.33,24,3,24,0.00
2012-1-6,44.8,36.9,29.4,22.8,12.7,6.7,49,37,23,29.80,29.42,24,5,24,0.00
2012-1-7,38.0,29.8,22.4,18.5,12.4,9.2,62,49,31,29.90,29.74,13,2,13,0.00
2012-1-8,42.2,32.9,26.0,19.2,13.2,10.7,56,45,28,29.92,29.75,12,1,12,0.00
2012-1-9,60.2,46.7,37.5,27.7,24.7,19.2,56,43,26,29.81,29.61,14,3,14,0.00
2012-1-10,61.6,45.6,30.0,32.5,24.6,20.3,86,46,22,29.62,29.24,33,7,33,0.00
2012-1-11,29.7,18.7,11.7,25.3,2.7,-11.5,87,51,31,29.99,29.56,33,15,33,0.00
2012-1-12,35.5,24.3,10.2,21.3,2.9,-20.3,77,41,20,29.99,29.67,23,5,23,0.00
2012-1-13,48.5,33.3,17.7,23.0,13.3,5.1,76,47,20,29.74,29.44,40,9,40,0.00
2012-1-14,49.9,34.6,22.7,15.5,9.0,1.8,55,35,20,29.80,29.37,18,3,18,0.00
2012-1-15,58.0,35.3,20.8,21.3,12.6,2.6,63,40,15,29.60,29.24,23,5,23,0.00
2012-1-16,20.6,11.8,3.9,11.0,5.5,-1.2,80,75,64,30.03,29.57,13,4,13,0.00
2012-1-17,27.6,11.6,-4.1,14.4,0.6,-10.0,80,63,29,30.07,29.54,16,2,16,0.00
2012-1-18,32.2,13.2,-4.6,5.9,-4.0,-12.0,72,50,23,29.82,29.40,30,10,30,0.00
2012-1-19,16.2,4.2,-4.8,0.7,-5.2,-11.8,72,65,46,29.87,29.51,20,5,20,0.00
2012-1-20,15.4,8.5,2.2,3.0,-0.1,-3.4,78,68,54,29.90,29.51,17,5,17,0.00
2012-1-21,58.0,37.7,11.4,34.5,24.7,5.4,77,62,32,29.55,28.83,33,5,33,0.00
2012-1-22,43.8,36.6,27.6,36.1,22.9,13.8,86,59,39,29.49,28.82,36,14,36,0.27
2012-1-23,43.2,30.4,21.0,17.5,11.1,7.9,66,46,25,29.61,29.48,12,1,12,0.00
2012-1-24,34.7,31.9,25.0,31.4,24.2,13.1,91,75,49,29.85,29.54,17,4,17,0.02
2012-1-25,58.1,45.0,33.5,32.9,25.3,16.5,80,49,22,29.68,29.45,33,7,33,0.05
2012-1-26,45.4,39.3,32.2,31.3,20.1,15.4,71,47,31,29.65,29.33,24,5,24,0.00
2012-1-27,40.2,31.3,24.7,31.4,14.3,-2.6,76,50,27,29.95,29.38,35,13,35,0.00
2012-1-28,37.9,31.2,25.1,12.0,4.8,-1.6,55,33,21,29.90,29.81,30,9,30,0.00
2012-1-29,61.5,40.5,24.1,25.1,18.3,10.6,65,44,24,29.81,29.33,22,3,22,0.00
2012-1-30,59.9,47.6,35.9,27.6,20.6,14.2,55,35,18,29.37,29.17,21,3,21,0.00
2012-1-31,51.1,41.9,34.0,26.3,18.4,13.1,56,40,23,29.69,29.35,21,5,21,0.00
2012-2-1,48.2,38.3,26.6,17.2,15.1,12.7,61,40,26,29.81,29.66,12,2,12,0.00
2012-2-2,46.7,35.9,22.4,26.1,19.0,10.6,69,51,32,29.96,29.72,22,5,22,0.00
2012-2-3,38.8,31.6,24.7,26.7,24.5,22.5,92,76,57,30.20,29.96,17,7,17,0.00
2012-2-4,42.6,29.2,17.7,26.2,20.7,15.0,92,73,43,30.25,30.10,6,0,6,0.00
2012-2-5,49.2,36.0,26.9,21.5,15.2,8.0,68,45,25,30.10,29.81,14,3,14,0.00
2012-2-6,39.9,30.0,21.8,22.6,16.4,8.0,87,60,33,30.20,29.77,25,9,25,0.00
2012-2-7,21.8,18.6,11.6,18.3,15.0,7.2,89,85,81,30.32,30.16,10,3,10,0.00
2012-2-8,18.6,13.0,9.9,15.4,8.8,5.2,87,83,80,30.17,30.04,7,1,7,0.00
2012-2-10,16.4,7.9,-1.0,2.9,-6.2,-11.2,69,53,39,30.44,30.23,9,2,9,0.00
2012-2-11,26.7,10.3,-6.8,8.4,-1.2,-14.3,75,61,41,30.47,29.99,22,5,22,0.00
2012-2-12,35.5,22.2,9.0,15.5,10.3,3.2,79,62,40,29.99,29.42,16,3,16,0.00
2012-2-13,48.5,35.9,21.9,26.1,20.3,11.9,69,54,32,29.44,29.31,12,2,12,0.00
2012-2-14,47.1,37.7,28.1,29.7,23.2,18.9,88,57,34,29.51,29.29,15,3,15,0.00
2012-2-15,37.6,27.2,17.5,21.9,17.5,11.8,85,68,45,29.87,29.51,7,1,7,0.00
2012-2-16,47.3,34.1,20.5,13.6,10.3,7.1,62,39,20,29.88,29.66,20,2,20,0.00
2012-2-17,37.8,27.8,19.2,16.6,12.8,8.9,71,54,38,29.93,29.66,12,1,12,0.00
2012-2-18,50.2,33.1,17.0,26.6,15.3,10.1,77,52,23,29.89,29.45,21,4,21,0.00
2012-2-19,45.5,35.8,25.6,28.1,21.4,13.7,83,57,39,29.50,29.36,20,4,20,0.00
2012-2-20,41.9,34.2,29.0,27.2,18.3,6.6,87,55,23,29.51,29.41,20,8,20,0.02
2012-2-21,46.4,34.6,21.6,28.4,19.9,13.5,74,56,33,29.51,29.22,20,3,20,0.00
2012-2-22,47.0,40.5,35.9,35.2,29.9,24.5,90,67,41,29.23,28.89,24,6,24,0.10
2012-2-23,40.3,31.5,27.9,27.9,20.2,16.0,87,63,52,29.71,28.95,40,16,40,0.00
2012-2-24,34.6,26.8,19.1,24.5,18.1,10.9,87,70,51,29.93,29.71,20,5,20,0.01
2012-2-25,23.8,19.2,16.4,18.8,15.3,12.9,88,85,81,29.89,29.50,16,7,16,0.00
2012-2-26,26.3,17.4,11.7,12.7,8.1,4.4,73,67,56,30.08,29.61,22,7,22,0.01
2012-2-27,44.6,24.2,7.6,19.6,11.7,1.7,84,62,29,30.19,29.62,26,7,26,0.00
2012-2-28,25.1,19.1,13.1,17.7,14.0,9.2,86,80,69,30.15,29.72,20,6,20,0.00
2012-2-29,41.5,31.3,21.1,23.4,18.4,8.7,84,60,38,29.83,29.59,16,3,16,0.01
2012-3-1,44.8,35.0,24.8,27.1,11.3,-2.9,82,43,14,29.72,29.49,17,6,17,0.00
2012-3-2,33.7,28.0,18.0,14.1,8.9,3.9,74,46,29,29.99,29.71,33,10,33,0.00
2012-3-3,35.5,25.4,19.5,20.9,16.1,11.9,79,68,51,29.96,29.93,23,3,23,0.00
2012-3-4,66.0,42.1,29.0,26.6,22.5,13.5,78,52,13,30.03,29.61,8,2,19,0.04
2012-3-5,67.9,50.5,35.5,26.1,20.4,16.1,59,34,14,29.59,29.24,13,2,31,0.00
2012-3-6,66.9,37.3,25.7,31.8,20.5,9.7,83,55,16,29.91,29.23,12,6,28,0.00
2012-3-7,38.5,34.5,30.1,16.8,11.2,6.3,56,39,28,30.20,29.88,20,7,20,0.00
2012-3-8,54.2,40.8,28.7,15.8,9.8,3.1,55,30,13,30.34,30.20,14,3,14,0.00
2012-3-9,72.5,49.6,27.6,22.2,13.2,0.8,56,29,7,30.29,29.77,18,3,18,0.00
2012-3-10,74.2,57.6,42.3,16.8,10.0,2.1,35,16,8,29.78,29.50,20,4,20,0.00
2012-3-11,70.4,52.7,35.0,35.7,25.3,15.6,67,37,15,29.53,29.28,18,4,18,0.00
2012-3-12,59.9,52.9,40.9,25.1,19.0,14.8,42,26,21,29.86,29.27,25,6,25,0.00
2012-3-13,74.4,56.6,31.9,25.4,18.7,13.7,65,29,11,29.85,29.48,34,9,35,0.00
2012-3-14,64.3,51.7,39.8,24.1,17.4,4.8,47,27,16,29.99,29.52,27,7,27,0.00
2012-3-15,70.6,53.8,38.3,29.2,25.4,22.7,56,36,19,30.03,29.84,21,3,21,0.00
2012-3-16,79.4,60.2,37.5,32.3,25.3,20.0,65,32,13,29.85,29.48,28,5,28,0.00
2012-3-17,78.3,62.4,48.3,35.4,28.5,20.4,56,30,13,29.67,29.39,26,5,26,0.00
2012-3-18,76.3,64.3,45.8,27.6,21.6,15.5,42,21,11,29.43,29.06,26,8,26,0.00
2012-3-19,63.7,51.1,37.5,35.0,16.5,2.9,61,28,11,29.73,29.12,28,15,28,0.00
2012-3-20,46.7,33.5,28.4,23.3,20.2,15.8,70,59,29,30.05,29.73,13,2,13,0.00
2012-3-21,66.0,55.8,42.3,16.4,12.8,10.4,28,19,13,30.01,29.92,23,3,12,0.00
2012-3-22,67.4,51.7,33.7,45.8,26.8,10.8,88,42,13,30.05,29.86,20,4,20,0.00
2012-3-23,72.3,55.5,37.2,46.8,40.2,33.2,93,62,24,29.97,29.78,21,5,21,0.00
2012-3-24,58.7,51.1,41.8,39.2,31.2,25.7,65,48,29,30.19,29.78,20,7,20,0.00
2012-3-25,58.0,44.5,33.5,38.9,34.6,28.2,88,69,49,30.19,29.99,20,8,20,0.00
2012-3-26,66.9,48.7,39.9,49.4,42.7,37.3,94,82,51,29.99,29.35,18,8,18,0.00
2012-3-27,63.4,55.8,46.5,36.1,28.4,23.0,56,37,22,29.99,29.69,23,7,23,0.00
2012-3-28,76.7,56.7,38.6,29.9,24.3,18.5,58,32,12,30.00,29.66,27,5,27,0.00
2012-3-29,66.1,57.7,48.0,34.9,27.6,20.8,49,32,22,29.84,29.62,20,4,20,0.00
2012-3-30,66.0,52.7,43.9,30.0,25.9,21.8,56,37,20,29.71,29.59,17,3,17,0.00
2012-4-1,64.3,58.5,32.0,99.9,35.2,30.7,42,38,34,29.48,29.39,33,20,33,0.00
2012-4-2,55.1,46.8,40.1,31.6,26.0,16.6,71,46,27,30.26,29.48,36,16,36,0.00
2012-4-3,55.6,47.6,37.9,26.0,15.9,11.9,49,29,19,30.32,30.08,15,4,15,0.00
2012-4-4,66.8,51.5,32.8,31.7,24.0,10.7,50,35,26,30.10,29.74,28,8,28,0.00
2012-4-5,73.7,57.8,40.6,44.4,37.7,29.4,74,50,27,29.79,29.68,27,13,27,0.00
2012-4-6,68.4,52.7,38.2,48.7,42.4,31.4,81,69,38,29.99,29.44,31,11,31,0.29
2012-4-7,42.2,38.0,34.4,31.9,21.7,17.2,80,52,45,30.24,29.98,24,8,24,0.00
2012-4-8,59.2,56.2,53.5,18.1,17.1,15.8,23,21,20,30.35,30.26,10,4,16,0.00
2012-4-9,56.2,49.4,38.9,18.6,17.1,14.1,42,28,22,30.32,30.24,13,3,15,0.00
2012-4-10,38.8,37.4,36.6,17.6,17.2,16.6,44,44,41,30.31,30.30,0,0,0,0.00
2012-4-17,67.6,55.1,43.8,42.4,35.9,31.0,76,52,27,30.11,29.86,26,8,27,0.70
2012-4-18,63.4,49.9,36.6,45.6,35.5,27.9,86,59,35,30.10,29.78,20,6,20,0.30
2012-4-19,58.0,46.8,40.1,44.5,37.8,26.8,95,74,31,30.13,29.86,27,5,27,0.10
2012-4-20,63.2,51.4,37.5,41.3,30.8,25.6,80,48,27,30.16,29.82,22,4,22,0.00
2012-4-21,63.4,56.6,46.0,41.9,31.5,23.6,61,40,27,30.26,29.87,24,10,24,0.00
2012-4-22,66.6,52.5,34.3,35.1,29.4,24.2,73,44,26,30.34,30.12,22,6,22,0.00
2012-4-23,83.6,61.3,40.3,45.1,34.4,28.6,74,43,14,30.12,29.82,16,3,16,0.00
2012-4-24,85.3,74.0,63.7,43.3,39.6,34.0,46,31,17,29.71,29.46,16,4,38,0.10
2012-4-25,79.8,64.3,47.9,43.4,38.1,31.0,78,44,18,29.95,29.70,8,3,24,0.00
2012-4-26,66.1,57.8,50.8,52.7,50.0,42.8,95,77,54,29.91,29.52,13,8,24,5.30
2012-4-27,53.3,45.8,40.5,52.0,37.8,27.9,96,75,44,29.85,29.46,7,3,23,9.40
2012-4-28,52.2,46.4,40.9,35.5,29.0,24.6,80,52,35,29.99,29.82,20,6,20,0.00
2012-4-29,61.3,48.7,37.8,36.6,32.0,25.8,76,54,27,30.04,29.95,15,4,15,0.00
2012-4-30,73.5,57.2,38.6,38.7,31.5,23.9,77,42,16,30.02,29.48,23,5,23,0.00
2012-5-1,68.8,59.0,50.4,49.1,38.5,24.9,79,48,28,29.67,29.43,18,4,18,0.00
2012-5-2,76.7,57.6,46.0,46.1,41.1,34.2,76,58,22,29.75,29.56,24,5,24,0.00
2012-5-3,67.8,59.5,49.8,52.7,46.2,38.0,83,63,41,29.92,29.78,12,2,19,0.00
2012-5-4,72.5,62.1,52.8,55.2,48.5,44.0,90,63,36,29.92,29.79,5,1,15,2.80
2012-5-5,63.9,55.4,45.7,52.7,46.3,34.9,86,72,54,30.10,29.85,23,9,23,0.68
2012-5-6,64.8,53.9,44.3,35.4,25.8,18.9,67,36,20,30.26,30.07,26,10,26,0.00
2012-5-7,62.4,52.2,39.9,28.4,23.0,19.1,54,33,22,30.26,30.13,25,8,25,0.00
2012-5-8,62.3,52.1,41.8,33.1,26.0,19.9,64,37,27,30.21,30.08,21,7,21,0.00
2012-5-9,56.3,50.0,37.3,40.3,36.3,30.7,77,60,52,30.13,29.96,9,4,9,0.00
2012-5-10,78.3,60.1,48.3,45.7,37.6,28.4,52,45,23,30.02,29.53,35,13,35,0.00
2012-5-11,57.5,49.7,43.9,30.8,21.2,12.9,50,33,22,30.35,30.01,25,6,25,0.00
2012-5-12,65.5,52.0,32.2,31.2,25.6,18.4,71,39,22,30.41,30.23,21,5,21,0.00
2012-5-13,74.9,61.7,44.5,34.0,27.8,19.7,55,30,15,30.27,30.06,12,3,12,0.00
2012-5-14,84.3,71.8,56.0,30.6,25.0,19.9,33,18,10,30.06,29.87,15,6,15,0.00
2012-5-15,74.6,64.8,53.3,30.7,27.0,19.5,38,25,16,30.14,29.98,13,4,13,0.00
2012-5-16,91.6,70.8,50.1,40.1,32.8,24.7,48,27,11,30.03,29.52,32,10,32,0.00
2012-5-17,84.5,74.9,62.9,46.7,36.6,30.1,48,26,17,29.58,29.47,24,6,24,0.20
2012-5-18,77.0,64.0,54.1,53.9,48.9,40.1,86,60,33,29.73,29.49,21,8,21,4.00
2012-5-19,61.6,54.9,48.6,50.0,39.7,31.6,89,59,34,30.15,29.68,24,11,24,3.30
2012-5-20,70.6,57.7,42.5,41.2,36.4,31.5,67,47,27,30.23,30.05,21,6,21,0.00
2012-5-21,86.3,69.1,49.2,51.5,43.1,34.5,82,45,17,30.11,29.72,17,5,17,0.00
2012-5-22,61.2,59.8,58.4,44.6,43.9,42.8,59,56,52,29.72,29.70,4,0,4,0.00
2012-5-23,62.3,53.5,45.8,48.9,41.0,36.8,86,64,42,29.70,29.52,7,3,19,3.40
2012-5-24,55.9,47.5,41.2,44.3,38.2,34.5,86,70,52,30.02,29.69,7,2,19,4.40
2012-5-25,48.5,47.1,45.7,45.4,42.3,36.9,89,84,70,30.08,30.00,10,3,10,0.09
2012-5-26,50.4,48.6,45.8,48.8,46.5,44.2,99,92,87,30.01,29.59,17,3,17,3.60
2012-5-27,74.0,58.3,44.6,54.2,38.0,23.4,95,57,18,29.71,29.59,36,7,36,0.10
2012-5-28,65.2,54.6,42.9,42.6,33.9,25.0,81,49,24,30.01,29.69,32,9,32,0.00
2012-5-29,66.6,54.9,40.5,41.6,35.9,29.9,69,50,36,30.08,29.96,16,4,16,0.00
2012-5-30,63.4,52.3,45.4,46.6,40.6,33.0,86,65,32,30.10,29.92,21,5,21,0.10
2012-5-31,66.0,54.4,43.8,46.3,43.5,41.2,93,69,43,30.16,29.90,12,3,12,0.00
2012-6-1,73.9,64.3,51.3,51.8,42.4,33.8,88,50,25,29.90,29.80,24,6,24,0.03
2012-6-2,86.3,70.2,50.5,54.2,45.4,39.7,69,45,22,29.85,29.51,33,6,33,0.00
2012-6-3,80.9,73.3,63.9,52.4,47.7,42.8,62,41,28,29.88,29.56,19,6,19,0.00
2012-6-4,91.2,75.5,57.5,56.5,51.7,47.0,71,46,26,29.91,29.68,22,7,22,0.00
2012-6-5,92.1,79.0,60.7,54.4,48.8,41.1,76,39,18,29.74,29.51,33,12,33,0.00
2012-6-6,88.2,78.4,64.3,54.6,42.6,28.5,69,33,13,29.82,29.56,27,9,27,0.05
2012-6-7,77.2,64.2,55.1,57.6,51.9,43.6,89,66,46,29.98,29.76,28,4,28,0.90
2012-6-8,87.6,81.3,74.0,57.1,54.8,49.1,55,41,27,29.58,29.39,15,5,15,0.90
2012-6-9,81.2,70.8,52.6,58.9,48.5,38.7,81,49,26,29.68,29.29,33,9,33,0.64
2012-6-10,75.4,62.6,53.2,44.0,35.3,20.3,70,41,13,29.84,29.57,29,9,29,0.00
2012-6-11,71.6,63.1,56.3,43.8,41.8,38.7,62,47,31,30.14,29.81,26,10,26,0.00
2012-6-12,79.0,62.6,50.7,51.9,45.5,35.8,86,58,22,30.15,29.79,20,6,20,0.14
2012-6-13,90.5,71.0,49.2,54.4,45.7,37.3,86,47,16,29.92,29.41,30,7,30,0.00
2012-6-14,78.6,70.3,62.0,45.9,40.1,35.1,53,35,22,29.89,29.55,20,6,20,0.00
2012-6-15,90.1,70.6,56.6,55.5,47.0,38.6,65,45,24,29.91,29.64,25,5,25,0.00
2012-6-16,79.8,73.3,62.1,46.9,41.2,33.3,55,32,24,30.07,29.78,12,4,12,0.00
2012-6-17,92.3,75.4,56.7,58.5,45.1,36.7,73,40,15,29.77,29.33,16,2,16,0.00
2012-6-18,90.1,75.9,60.1,52.5,47.3,40.6,58,38,20,29.52,29.28,24,5,24,0.00
2012-6-19,75.1,67.3,56.3,56.8,50.1,42.0,87,56,37,29.78,29.38,20,7,20,0.26
2012-6-20,70.6,61.1,52.6,53.3,45.7,37.0,93,60,30,30.12,29.72,25,5,25,0.40
2012-6-21,68.3,56.8,52.0,47.0,42.7,40.4,67,60,38,30.16,30.11,9,2,9,0.00
2012-6-22,90.5,83.6,74.7,59.2,52.6,39.5,48,35,21,29.76,29.42,25,9,25,0.02
2012-6-23,89.0,78.2,67.3,63.9,59.2,50.7,69,53,40,29.71,29.48,24,6,24,0.02
2012-6-24,85.3,76.7,65.6,67.2,64.1,60.9,89,66,47,29.86,29.70,20,7,20,0.00
2012-6-25,89.0,77.0,69.6,69.6,65.3,49.4,88,69,29,29.85,29.59,22,9,22,0.00
2012-6-26,107.7,90.3,69.3,64.5,50.5,32.9,73,34,9,29.65,29.31,24,5,24,0.01
2012-6-27,87.4,76.5,66.6,50.2,38.6,25.6,50,27,11,29.84,29.36,20,8,20,0.00
2012-6-28,91.4,76.9,60.5,53.3,47.1,42.2,53,37,22,29.94,29.74,13,3,13,0.00
2012-6-29,92.7,82.7,68.1,64.3,54.4,47.5,69,40,22,29.74,29.65,17,4,17,0.00
2012-6-30,92.3,78.9,65.3,64.6,57.8,46.8,88,52,24,29.77,29.66,24,5,24,0.00
2012-7-1,95.1,80.3,63.5,61.7,55.5,50.6,69,46,23,29.81,29.57,20,5,20,0.00
2012-7-2,88.6,76.9,68.9,63.8,58.5,51.9,74,56,31,29.75,29.66,10,2,21,0.04
2012-7-3,100.2,86.4,72.5,56.9,47.4,38.2,54,28,13,29.75,29.39,10,5,29,0.00
2012-7-4,87.0,76.2,68.4,57.8,41.8,30.5,59,33,14,29.89,29.71,7,2,20,0.00
2012-7-5,91.2,77.0,65.0,67.5,62.1,56.8,90,64,32,29.90,29.64,13,4,24,0.08
2012-7-6,76.0,67.2,60.9,62.1,58.0,55.5,86,73,59,30.17,29.92,23,8,23,0.08
2012-7-7,69.9,64.8,59.8,58.9,58.1,56.5,92,79,65,30.24,30.16,7,1,7,0.00
2012-7-8,81.2,71.0,62.7,59.9,57.5,52.9,87,65,38,30.21,30.09,14,2,14,0.00
2012-7-9,88.4,75.7,60.7,60.9,51.3,42.5,83,47,22,30.14,29.99,21,3,21,0.00
2012-7-10,92.9,78.5,58.7,57.9,47.6,41.0,71,38,18,30.05,29.83,23,4,23,0.00
2012-7-11,99.9,83.8,65.3,55.2,48.1,41.2,57,32,15,29.88,29.67,23,5,23,0.00
2012-7-12,91.2,80.2,71.1,54.9,50.4,44.7,52,37,22,29.90,29.76,14,4,14,0.00
2012-7-13,95.4,82.6,66.4,56.6,48.5,41.2,59,34,17,29.90,29.78,13,4,13,0.00
2012-7-14,101.2,85.2,66.3,54.5,48.7,43.4,60,31,15,29.88,29.65,24,7,24,0.00
2012-7-15,100.7,88.4,71.8,59.8,48.1,40.3,58,27,14,29.69,29.52,21,8,21,0.00
2012-7-16,102.0,89.2,76.7,61.7,50.0,43.0,58,28,14,29.64,29.45,27,6,27,0.00
2012-7-17,85.1,78.2,62.3,66.4,61.4,53.6,83,57,42,29.86,29.69,23,3,23,0.07
2012-7-18,95.1,79.8,63.1,64.5,56.8,48.5,86,52,21,29.87,29.73,15,3,16,0.45
2012-7-19,104.1,87.8,67.6,55.8,48.9,38.8,58,30,11,29.80,29.68,13,3,13,0.00
2012-7-20,99.0,84.2,71.6,63.4,53.4,44.6,75,37,18,29.95,29.77,18,5,18,0.05
2012-7-21,93.2,78.2,67.6,67.8,61.8,55.8,81,59,30,29.96,29.80,25,4,25,0.17
2012-7-22,96.1,84.7,68.9,58.4,53.1,47.2,65,36,20,29.90,29.76,26,3,26,0.03
2012-7-23,97.5,83.2,71.3,63.2,56.6,50.7,64,42,23,29.85,29.67,17,4,17,0.00
2012-7-24,94.7,78.8,66.8,66.5,62.2,56.2,89,59,28,29.93,29.64,34,6,34,1.07
2012-7-25,72.0,68.5,66.0,64.6,58.9,55.9,89,72,62,29.97,29.86,20,4,20,0.02
2012-7-26,86.1,80.0,67.8,51.8,47.6,43.7,56,34,24,30.23,30.11,21,8,21,0.02
2012-7-27,95.6,72.9,55.9,61.0,53.0,47.6,83,54,21,30.25,29.99,28,6,28,0.15
2012-7-28,92.9,78.8,62.0,58.7,52.9,43.0,80,46,19,30.13,30.02,14,2,14,0.00
2012-7-29,89.0,84.3,77.4,56.0,50.0,45.8,40,31,25,30.15,29.99,21,6,21,0.04
2012-7-30,91.8,78.9,68.1,54.8,50.3,45.7,56,38,23,30.17,29.98,13,4,13,0.00
2012-7-31,99.9,77.1,64.0,59.4,52.3,42.0,70,46,14,30.07,29.92,22,3,22,0.00
2012-8-1,91.0,79.8,70.3,58.0,51.2,46.4,54,38,26,30.07,29.91,8,2,19,0.00
2012-8-2,89.9,74.4,62.1,56.0,50.4,40.4,69,47,19,30.08,29.81,17,3,28,0.01
2012-8-3,79.4,67.7,61.2,56.2,51.2,40.8,78,57,42,30.10,29.83,14,4,31,0.00
2012-8-4,77.2,66.5,51.7,47.7,41.4,38.0,71,43,26,30.29,30.10,15,3,22,0.02
2012-8-5,95.9,77.0,53.8,47.5,44.7,38.9,72,37,14,30.30,29.99,11,3,20,0.00
2012-8-6,95.1,83.9,68.8,47.1,43.8,41.4,44,26,16,30.06,29.98,10,2,11,0.00
2012-8-7,93.2,81.9,69.6,55.5,48.6,42.8,48,33,19,30.07,29.74,9,1,11,0.00
2012-8-8,86.1,79.2,69.1,56.4,47.0,34.5,50,33,24,30.06,29.77,8,3,15,0.00
2012-8-9,87.0,73.7,58.0,54.0,48.7,42.2,75,44,26,29.98,29.88,7,2,11,0.00
2012-8-10,91.8,75.3,60.2,57.5,48.6,43.0,70,42,20,29.92,29.73,12,3,14,0.02
2012-8-11,79.2,68.1,61.8,61.0,58.3,54.9,90,72,45,29.85,29.66,7,3,11,0.26
2012-8-12,80.7,71.1,63.1,56.2,52.0,46.9,73,53,31,29.98,29.82,7,3,12,0.01
2012-8-13,83.4,71.3,57.8,55.1,48.2,43.1,77,48,26,29.99,29.70,8,3,10,0.00
2012-8-14,86.7,73.5,59.2,55.2,50.4,48.0,79,47,28,29.81,29.53,6,1,6,0.00
2012-8-15,72.3,67.2,59.3,52.4,47.8,41.6,62,50,33,30.06,29.46,11,6,16,0.00
2012-8-16,71.3,62.4,52.3,46.7,41.5,37.4,72,49,29,30.13,29.99,5,2,6,0.00
2012-8-17,81.8,67.9,49.5,48.2,40.9,31.2,74,42,22,30.01,29.79,4,1,8,0.00
2012-8-18,78.3,69.4,60.4,38.0,33.7,30.4,39,27,18,29.95,29.83,7,4,10,0.00
2012-8-19,81.4,69.4,56.5,38.4,36.8,34.8,47,32,20,29.97,29.82,4,2,7,0.00
2012-8-20,83.4,68.5,53.8,42.9,39.6,37.4,59,37,20,29.86,29.75,5,1,9,0.00
2012-8-21,88.8,72.9,53.2,43.3,40.3,34.7,66,34,15,29.82,29.69,6,1,9,0.00
2012-8-22,90.5,75.3,61.0,54.6,45.7,41.6,62,38,19,29.69,29.58,6,1,6,0.00
2012-8-23,88.0,78.4,73.9,38.4,37.3,36.5,27,23,17,29.59,29.54,5,1,7,0.00
2012-8-24,98.2,80.7,62.0,52.5,44.0,33.8,52,30,13,29.63,29.37,8,3,13,0.00
2012-8-25,78.1,68.6,60.1,33.5,30.5,28.1,35,25,16,29.86,29.64,10,4,14,0.00
2012-8-26,85.7,71.9,56.3,48.3,39.2,31.3,49,32,20,29.89,29.76,6,1,7,0.00
2012-8-27,97.8,78.6,59.3,55.9,47.3,42.5,63,37,16,29.88,29.66,10,2,11,0.00
2012-8-28,97.1,83.6,71.1,51.3,45.2,41.8,39,27,15,29.77,29.63,8,2,10,0.00
2012-8-29,104.9,85.1,65.6,53.0,44.0,34.4,53,28,10,29.67,29.41,8,2,11,0.00
2012-8-30,84.7,76.7,68.3,40.9,37.4,33.0,33,25,16,29.85,29.43,8,4,15,0.00
2012-8-31,87.8,74.1,62.9,47.9,43.1,34.5,46,34,20,29.89,29.67,7,2,7,0.00
2012-9-1,99.7,86.8,76.1,49.2,41.4,35.0,27,21,14,29.67,29.47,11,3,13,0.00
2012-9-2,86.7,79.4,68.6,45.3,41.8,39.9,42,27,20,29.74,29.51,13,4,18,0.00
2012-9-3,88.8,74.8,59.2,45.3,33.8,25.0,58,26,12,29.75,29.67,9,2,9,0.00
2012-9-4,89.7,73.2,54.8,36.0,28.5,23.3,35,21,11,29.85,29.58,9,4,11,0.00
2012-9-5,77.0,64.8,52.3,36.9,33.5,29.3,55,33,21,29.98,29.74,9,2,11,0.00
2012-9-6,79.2,66.3,55.9,52.1,35.6,32.5,78,34,19,29.96,29.68,9,3,13,0.02
2012-9-7,72.5,63.1,54.5,52.3,39.0,30.9,80,44,22,30.13,29.95,6,2,10,0.00
2012-9-8,81.4,68.0,55.3,39.8,33.8,27.4,44,31,14,30.11,29.97,8,4,12,0.00
2012-9-9,91.0,70.8,49.2,41.2,33.4,26.9,57,30,10,30.07,29.58,9,3,17,0.00
2012-9-10,96.6,80.8,60.1,42.4,33.7,28.0,32,20,10,29.58,29.40,19,3,19,0.00
2012-9-11,79.9,70.4,62.3,42.9,31.1,24.7,28,24,17,29.94,29.35,14,6,19,0.00
2012-9-12,69.4,60.6,52.5,28.3,24.3,17.3,35,25,20,30.20,29.95,6,1,8,0.00
2012-9-13,77.4,63.7,49.5,44.7,29.2,18.1,69,31,13,30.24,30.13,5,2,6,0.00
2012-9-14,82.0,66.0,49.2,31.9,27.6,23.9,42,25,13,30.26,29.93,10,3,14,0.00
2012-9-15,88.0,71.2,50.5,43.3,27.4,20.2,50,24,9,29.92,29.79,5,1,5,0.00
2012-9-16,72.3,62.2,50.1,40.8,32.2,22.3,69,34,21,30.08,29.77,8,4,14,0.00
2012-9-17,65.0,56.2,47.4,41.0,34.0,29.1,69,45,29,30.09,29.99,5,1,7,0.00
2012-9-18,81.8,64.0,43.6,35.4,30.7,27.0,62,33,15,30.00,29.67,7,2,12,0.00
2012-9-19,72.3,65.0,54.2,33.9,28.0,24.6,35,25,17,29.97,29.62,11,5,16,0.00
2012-9-20,76.1,63.0,49.8,32.1,30.0,27.5,47,30,19,29.95,29.81,8,2,9,0.00
2012-9-21,76.8,63.4,49.2,35.5,32.5,26.4,54,33,21,30.03,29.85,11,4,16,0.00
2012-9-22,67.4,53.1,41.9,32.2,29.8,27.3,63,42,26,30.18,30.04,4,1,6,0.00
2012-9-23,68.6,53.8,39.5,32.6,29.1,25.6,64,40,25,30.13,29.98,3,0,3,0.00
2012-9-24,75.4,60.2,48.5,36.6,32.2,27.1,58,37,19,29.98,29.75,4,0,4,0.00
2012-9-25,77.4,65.2,55.4,31.7,28.8,26.5,39,26,17,29.84,29.73,5,2,6,0.00
2012-9-26,80.3,63.9,47.7,38.0,33.7,30.6,54,35,18,29.94,29.84,7,2,11,0.00
2012-9-27,78.1,63.7,48.9,44.9,35.9,31.1,64,39,18,30.01,29.91,6,1,9,0.00
2012-9-28,76.1,62.1,46.0,48.0,40.3,34.6,74,47,27,30.05,29.87,8,2,13,0.00
2012-9-29,83.6,66.7,51.7,49.1,42.8,37.1,74,46,20,29.89,29.71,11,4,18,0.00
2012-9-30,77.9,68.9,57.8,47.1,38.6,35.1,67,35,22,29.97,29.75,6,3,11,0.00
2012-10-1,66.1,56.9,47.7,46.4,36.6,28.0,80,50,24,30.21,29.87,6,2,9,0.00
2012-10-2,82.2,63.1,43.2,37.5,30.8,29.1,59,34,15,29.85,29.57,6,1,10,0.00
2012-10-3,58.4,47.9,37.9,39.5,33.4,30.2,79,59,36,30.26,29.55,15,6,20,0.00
2012-10-4,46.4,39.8,33.7,31.6,26.0,22.1,84,59,42,30.39,30.27,7,3,11,0.00
2012-10-5,43.1,37.6,33.5,28.0,23.4,20.0,71,57,41,30.39,30.32,3,1,3,0.00
2012-10-6,42.3,35.4,29.7,24.1,19.8,13.4,79,54,31,30.44,30.22,4,1,5,0.00
2012-10-7,59.9,46.5,27.5,28.1,21.9,14.6,60,39,24,30.22,29.78,7,2,11,0.00
2012-10-8,58.1,52.4,43.3,40.0,32.1,22.7,80,48,28,29.84,29.66,7,4,14,0.00
2012-10-9,47.1,41.2,35.5,34.9,27.9,23.6,77,59,42,30.13,29.84,8,4,15,0.00
2012-10-10,70.6,50.8,31.0,31.7,26.9,24.9,78,46,18,30.13,29.75,5,2,6,0.00
2012-10-11,48.6,40.3,36.3,33.5,31.1,28.2,82,70,53,30.26,29.87,4,2,5,0.00
2012-10-12,74.7,64.6,51.7,33.6,32.4,30.0,50,31,22,29.78,29.58,6,2,10,0.00
2012-10-13,71.8,61.8,51.4,38.5,33.0,27.5,51,36,21,29.85,29.47,10,4,17,0.00
2012-10-14,64.8,55.1,49.8,37.1,34.4,29.3,56,46,30,29.96,29.84,7,3,7,0.00
2012-10-15,75.6,59.1,41.8,39.7,30.7,26.7,60,38,17,29.85,29.57,7,1,7,0.00
2012-10-16,70.9,58.6,45.7,47.7,37.9,33.0,79,49,25,29.58,29.19,15,3,18,0.27
2012-10-17,52.6,47.4,41.8,35.9,21.7,15.9,63,37,27,29.76,29.35,19,13,27,0.01
2012-10-18,52.2,45.7,41.6,23.4,15.1,7.8,44,30,20,29.99,29.72,22,14,34,0.01
2012-10-19,62.7,47.7,32.5,24.6,18.1,6.6,47,32,21,29.97,29.60,6,2,6,0.00
2012-10-20,79.4,61.8,44.2,37.1,27.7,23.4,46,29,16,29.59,29.31,8,2,10,0.00
2012-10-21,57.2,50.9,46.2,40.3,34.4,29.8,67,54,40,29.93,29.47,8,4,16,0.00
2012-10-22,48.8,43.5,40.1,38.7,35.9,32.5,88,75,62,29.93,29.63,8,4,10,0.01
2012-10-23,54.5,45.1,36.8,43.0,38.7,34.7,93,79,55,29.87,29.55,11,3,18,0.02
2012-10-24,42.3,36.3,32.5,39.6,32.5,25.1,92,86,71,30.13,29.80,8,3,11,0.31
2012-10-25,32.9,28.6,24.8,25.8,22.6,20.1,84,78,72,30.46,30.12,4,2,5,0.00
2012-10-26,38.0,29.1,21.4,23.5,21.1,17.0,86,73,53,30.54,30.22,4,1,10,0.00
2012-10-27,44.1,33.6,23.5,26.6,22.7,19.7,85,66,43,30.23,30.09,4,1,4,0.00
2012-10-28,52.6,38.5,27.0,32.1,26.7,20.9,80,64,38,30.13,29.88,10,2,15,0.00
2012-10-29,64.5,52.5,38.8,41.1,35.9,31.2,74,54,34,29.95,29.81,5,1,7,0.00
2012-10-30,65.3,55.1,46.4,38.6,35.8,32.7,64,49,31,29.95,29.83,4,2,10,0.00
2012-10-31,72.1,56.7,45.1,37.1,32.6,28.6,71,43,22,29.98,29.84,7,2,15,0.00
2012-11-1,47.7,39.1,32.9,41.3,35.7,31.0,95,88,70,29.95,29.79,7,2,15,0.00
2012-11-2,55.6,42.0,32.7,45.0,35.1,31.4,96,79,46,30.12,29.84,6,1,11,0.01
2012-11-3,53.9,40.5,29.3,37.3,31.7,26.5,90,73,44,30.17,30.06,5,1,10,0.01
2012-11-4,58.9,43.0,32.4,37.2,32.1,27.8,90,69,39,30.18,30.01,12,3,17,0.02
2012-11-5,59.0,55.1,45.2,42.3,38.4,36.0,72,54,44,30.05,29.89,9,3,9,0.00
2012-11-6,56.5,46.9,37.8,40.7,26.9,18.9,78,48,26,30.13,30.00,4,2,6,0.00
2012-11-7,72.8,49.3,30.3,34.4,27.8,22.4,74,47,19,30.03,29.57,5,1,5,0.00
2012-11-8,53.3,43.1,30.9,34.6,28.7,22.7,88,58,36,29.97,29.63,11,4,13,0.00
2012-11-9,34.6,32.3,30.1,33.0,30.7,27.8,95,94,88,29.90,29.67,11,6,15,0.01
2012-11-10,32.8,25.3,13.3,32.3,21.3,5.6,99,85,63,30.02,29.63,12,4,16,0.01
2012-11-11,26.4,18.7,6.9,11.6,6.3,1.5,80,60,44,30.22,30.03,7,2,7,0.00
2012-11-12,37.8,28.6,21.4,21.8,12.8,5.5,70,52,36,30.28,30.17,3,1,5,0.02
2012-11-13,49.2,37.2,26.4,29.2,22.8,16.6,72,57,41,30.25,30.14,4,0,6,0.01
2012-11-14,51.3,40.0,27.8,32.0,24.2,19.8,74,54,31,30.16,30.00,4,1,5,0.00
2012-11-15,47.1,37.9,29.0,29.0,25.6,21.7,78,62,47,30.38,30.17,9,2,12,0.00
2012-11-16,63.5,43.4,26.7,32.3,26.5,23.1,86,56,23,30.20,29.86,7,2,9,0.00
2012-11-17,59.8,46.6,36.6,27.7,25.6,23.4,62,45,25,29.97,29.80,8,1,11,0.00
2012-11-18,66.8,47.7,29.7,36.2,29.1,23.9,80,52,26,29.89,29.65,11,2,11,0.00
2012-11-19,55.0,42.9,31.9,29.6,24.9,20.2,71,50,32,30.11,29.89,7,2,11,0.00
2012-11-20,66.4,46.2,30.0,33.9,27.4,23.6,79,53,22,30.03,29.80,3,0,4,0.00
2012-11-21,66.3,53.7,41.1,34.1,27.2,22.7,62,39,20,29.78,29.55,12,3,12,0.00
2012-11-22,49.9,40.0,21.9,33.4,23.1,11.2,70,52,28,30.49,29.64,15,7,21,0.00
2012-11-23,38.0,25.8,13.1,19.4,14.4,8.0,80,63,41,30.60,30.09,6,2,7,0.00
2012-11-24,59.6,42.7,25.6,32.3,23.1,17.3,71,49,20,30.07,29.82,8,2,8,0.00
2012-11-25,41.8,33.6,27.5,32.6,29.6,25.0,93,85,69,30.24,29.88,3,1,4,0.05
2012-11-26,26.3,23.8,19.9,24.3,21.5,17.2,92,91,83,30.46,30.24,2,0,2,0.00
2012-11-27,37.6,29.9,20.0,28.0,20.5,14.8,87,68,50,30.27,30.16,3,0,4,0.07
2012-11-28,47.3,31.0,18.9,33.3,22.4,14.3,83,71,58,30.23,29.98,0,0,0,0.01
2012-11-29,46.4,34.4,22.4,29.5,23.9,17.3,84,66,48,30.03,29.84,6,2,6,0.01
2012-11-30,38.0,31.0,25.0,31.4,25.9,21.9,88,81,69,29.96,29.82,2,0,5,0.00
2012-12-6,41.5,38.1,30.1,27.8,17.3,9.6,86,45,27,30.02,29.89,7,3,7,0.00
2012-12-7,34.0,28.5,21.4,27.4,24.9,17.6,92,87,74,29.98,29.84,5,1,5,0.03
2012-12-8,40.2,27.4,12.8,24.3,18.0,0.1,86,68,50,30.08,29.62,13,4,18,0.01
2012-12-9,14.8,8.9,0.7,0.1,-2.9,-5.9,74,59,45,30.52,30.10,12,5,21,0.00
2012-12-10,36.8,21.9,0.0,19.6,10.1,-6.0,76,61,42,30.18,29.89,7,2,12,0.00
2012-12-11,42.1,33.0,22.2,18.1,13.9,8.7,74,48,27,29.92,29.59,10,2,15,0.00
2012-12-12,56.7,41.8,29.1,24.8,20.1,16.6,71,44,21,29.75,29.52,12,3,13,0.00
2012-12-13,49.2,30.0,17.5,30.6,21.3,14.6,91,72,37,30.03,29.77,10,2,12,0.00
2012-12-14,45.7,32.5,25.1,25.3,20.7,16.9,80,63,33,29.83,29.55,3,0,4,0.00
2012-12-15,38.9,32.3,25.3,21.3,15.5,7.7,71,52,28,29.83,29.58,5,2,12,0.00
2012-12-16,40.6,29.2,22.1,21.3,17.7,12.7,84,63,42,29.77,29.58,7,2,11,0.00
2012-12-17,40.3,28.9,19.5,23.7,17.0,10.2,72,61,42,29.72,29.39,5,1,9,0.00
2012-12-18,41.8,35.3,27.9,25.6,10.0,0.3,71,37,18,29.82,29.46,7,3,16,0.00
2012-12-19,31.0,27.1,21.4,11.8,4.8,0.0,50,38,28,30.16,29.80,6,2,10,0.00
2012-12-20,43.8,28.7,15.6,6.3,2.7,-2.2,46,34,19,30.22,30.07,3,0,4,0.00
2012-12-21,54.1,35.8,24.4,14.4,8.1,1.4,49,33,15,30.10,29.86,4,1,6,0.00
2012-12-22,41.3,28.2,12.8,15.5,9.4,0.8,84,50,18,30.10,29.83,9,2,9,0.00
2012-12-23,21.0,13.5,9.5,14.6,8.8,5.4,85,81,71,30.19,29.94,6,1,9,0.00
2012-12-24,12.3,8.7,3.5,7.6,3.5,-1.8,82,79,77,30.48,30.14,4,1,5,0.00
2012-12-25,7.6,3.7,0.1,1.0,-2.0,-5.4,80,76,71,30.62,30.33,5,1,10,0.00
2012-12-26,11.9,6.0,-0.8,5.8,0.6,-6.3,81,78,75,30.32,29.99,3,1,4,0.00
2012-12-27,13.8,9.3,1.7,7.3,3.9,-3.3,82,78,73,30.19,29.96,2,1,5,0.00
2012-12-28,27.9,15.5,1.1,16.4,7.6,-5.1,82,71,56,30.20,30.11,2,0,4,0.01
2012-12-29,34.7,22.9,15.6,19.4,13.6,8.6,83,68,49,30.18,30.01,4,1,5,0.02
2012-12-30,33.5,23.7,15.6,20.3,13.6,4.8,83,66,45,30.18,29.98,5,2,5,0.00
2012-12-31,25.6,15.3,6.7,16.5,9.2,1.8,82,77,68,30.24,30.14,4,1,4,0.00
2013-1-1,33.1,25.5,17.0,23.6,15.0,7.3,79,64,53,30.22,30.05,9,2,18,0.00